Time;durP1;ratioP1;P1;durP2;ratioP2;P2;SDS_P1;SDS_P2;PMS_P1;PMS_P2;Temp;Humidity;BMP_temperature;BMP_pressure;BME280_temperature;BME280_humidity;BME280_pressure;Samples;Min_cycle;Max_cycle;Signal;HPM_P1;HPM_P2
2023/05/12 00:01:51;;;;;;;9.67;6.80;;;;;;;12.43;100.00;101775.66;5029512;28;20283;-78
2023/05/12 00:04:17;;;;;;;8.00;7.20;;;;;;;12.39;100.00;101775.56;5029401;28;20225;-78
2023/05/12 00:06:42;;;;;;;7.63;6.80;;;;;;;12.47;100.00;101776.63;5031611;28;20202;-79
2023/05/12 00:09:08;;;;;;;7.27;6.60;;;;;;;12.48;100.00;101774.09;5028021;28;20190;-79
2023/05/12 00:11:36;;;;;;;7.67;6.63;;;;;;;12.49;100.00;101769.84;5030067;28;20186;-79
2023/05/12 00:14:01;;;;;;;7.30;6.60;;;;;;;12.46;100.00;101780.91;5027190;28;20225;-78
2023/05/12 00:16:27;;;;;;;6.90;6.20;;;;;;;12.50;100.00;101771.56;5032577;28;20238;-80
2023/05/12 00:18:52;;;;;;;7.13;6.43;;;;;;;12.54;100.00;101774.25;5034557;28;20194;-79
2023/05/12 00:21:18;;;;;;;7.97;6.43;;;;;;;12.62;100.00;101777.00;5033054;28;20739;-79
2023/05/12 00:23:43;;;;;;;6.10;5.50;;;;;;;12.65;100.00;101779.66;5033662;28;20194;-78
2023/05/12 00:26:09;;;;;;;6.10;5.50;;;;;;;12.65;100.00;101777.97;5032629;28;20210;-79
2023/05/12 00:28:35;;;;;;;6.07;5.47;;;;;;;12.70;100.00;101778.97;5034506;28;20195;-79
2023/05/12 00:31:02;;;;;;;6.13;5.37;;;;;;;12.74;100.00;101782.47;5032811;28;20197;-77
2023/05/12 00:33:29;;;;;;;7.70;5.43;;;;;;;12.74;100.00;101785.94;5032061;28;20191;-78
2023/05/12 00:35:54;;;;;;;4.83;4.40;;;;;;;12.85;100.00;101786.19;5032748;28;20655;-79
2023/05/12 00:38:20;;;;;;;5.63;5.13;;;;;;;12.88;100.00;101783.69;5033403;28;20202;-79
2023/05/12 00:40:45;;;;;;;5.10;4.60;;;;;;;12.90;100.00;101779.47;5035861;28;20199;-79
2023/05/12 00:43:11;;;;;;;4.83;4.37;;;;;;;12.90;100.00;101780.34;5032809;28;20199;-79
2023/05/12 00:45:37;;;;;;;5.53;4.93;;;;;;;12.91;100.00;101782.06;5030920;28;20281;-79
2023/05/12 00:48:03;;;;;;;5.93;5.10;;;;;;;12.94;100.00;101783.84;5033419;28;20210;-79
2023/05/12 00:50:29;;;;;;;5.60;4.40;;;;;;;12.94;100.00;101786.41;5019909;28;20178;-79
2023/05/12 00:52:57;;;;;;;5.30;4.90;;;;;;;12.95;100.00;101786.44;5034209;28;20190;-79
2023/05/12 00:55:24;;;;;;;4.97;4.47;;;;;;;12.92;100.00;101782.94;5013210;28;20214;-78
2023/05/12 00:57:49;;;;;;;6.13;5.00;;;;;;;12.90;100.00;101789.75;5032561;28;20229;-78
2023/05/12 01:00:16;;;;;;;7.17;5.10;;;;;;;12.93;100.00;101783.81;5033105;28;20201;-79
2023/05/12 01:02:44;;;;;;;5.80;4.70;;;;;;;12.95;100.00;101789.03;5032650;28;20186;-79
2023/05/12 01:05:10;;;;;;;5.07;4.57;;;;;;;12.95;100.00;101783.88;5032882;28;20676;-79
2023/05/12 01:07:38;;;;;;;6.37;4.93;;;;;;;12.98;100.00;101789.97;5033643;28;20201;-79
2023/05/12 01:10:15;;;;;;;5.53;5.03;;;;;;;13.00;100.00;101790.88;5034234;28;20190;-79
2023/05/12 01:12:40;;;;;;;5.10;4.70;;;;;;;13.01;100.00;101788.34;5034449;28;20194;-79
2023/05/12 01:15:07;;;;;;;5.43;4.90;;;;;;;13.02;100.00;101790.09;5037336;28;20256;-79
2023/05/12 01:17:34;;;;;;;5.23;4.73;;;;;;;13.07;100.00;101792.78;5032965;28;20217;-80
2023/05/12 01:20:03;;;;;;;5.30;4.43;;;;;;;13.10;100.00;101795.41;5033517;28;20197;-79
2023/05/12 01:22:30;;;;;;;4.97;4.47;;;;;;;13.12;100.00;101804.06;5032924;28;20216;-80
2023/05/12 01:25:00;;;;;;;5.20;4.70;;;;;;;13.19;100.00;101798.19;5032765;28;20682;-79
2023/05/12 01:27:29;;;;;;;5.67;4.87;;;;;;;13.37;100.00;101801.22;5030059;28;20213;-79
2023/05/12 01:29:59;;;;;;;5.30;4.80;;;;;;;13.37;100.00;101802.09;5016726;28;20191;-80
2023/05/12 01:32:25;;;;;;;5.90;4.37;;;;;;;13.42;100.00;101797.94;5033180;28;20597;-80
2023/05/12 01:34:51;;;;;;;4.70;4.27;;;;;;;13.45;100.00;101787.69;5033119;28;20210;-79
2023/05/12 01:37:17;;;;;;;6.10;4.37;;;;;;;13.50;100.00;101791.25;5031596;28;20714;-80
2023/05/12 01:39:43;;;;;;;5.47;4.20;;;;;;;13.47;100.00;101800.59;5017393;28;20178;-79
2023/05/12 01:42:14;;;;;;;5.87;4.30;;;;;;;13.48;100.00;101798.06;5033404;28;20187;-80
2023/05/12 01:44:40;;;;;;;4.97;4.30;;;;;;;13.53;100.00;101804.19;5032791;28;20233;-79
2023/05/12 01:47:08;;;;;;;7.40;4.80;;;;;;;13.51;100.00;101816.16;5021695;28;20246;-79
2023/05/12 01:49:35;;;;;;;6.03;4.57;;;;;;;13.50;100.00;101824.72;5034608;28;20201;-79
2023/05/12 01:52:00;;;;;;;4.97;4.57;;;;;;;13.49;100.00;101822.94;5033602;28;20198;-79
2023/05/12 01:54:28;;;;;;;6.63;4.90;;;;;;;13.48;100.00;101830.66;5029936;28;20190;-79
2023/05/12 01:56:54;;;;;;;4.93;4.43;;;;;;;13.46;100.00;101822.91;5034172;28;20233;-79
2023/05/12 01:59:19;;;;;;;6.00;4.70;;;;;;;13.45;100.00;101823.69;5032986;28;20190;-80
2023/05/12 02:01:45;;;;;;;6.43;4.97;;;;;;;13.44;100.00;101824.53;5014237;28;20194;-78
2023/05/12 02:04:14;;;;;;;5.67;4.73;;;;;;;13.47;100.00;101828.88;5031801;28;20190;-79
2023/05/12 02:06:39;;;;;;;4.77;4.27;;;;;;;13.47;100.00;101821.16;5031377;28;20205;-79
2023/05/12 02:09:05;;;;;;;4.67;4.27;;;;;;;13.49;100.00;101829.81;5031802;28;20725;-79
2023/05/12 02:11:31;;;;;;;6.27;4.70;;;;;;;13.48;100.00;101828.94;5031970;28;20282;-79
2023/05/12 02:13:57;;;;;;;6.33;4.40;;;;;;;13.50;100.00;101834.13;5032751;28;20646;-78
2023/05/12 02:16:23;;;;;;;5.20;4.70;;;;;;;13.51;100.00;101838.44;5032479;28;20214;-79
2023/05/12 02:18:49;;;;;;;6.30;4.90;;;;;;;13.48;100.00;101844.38;5029291;28;20194;-78
2023/05/12 02:21:15;;;;;;;5.77;5.13;;;;;;;13.50;100.00;101834.13;5031194;28;20182;-78
2023/05/12 02:23:40;;;;;;;6.57;5.03;;;;;;;13.51;100.00;101836.75;5016325;28;20198;-80
2023/05/12 02:26:06;;;;;;;6.90;4.87;;;;;;;13.51;100.00;101841.88;5033242;28;20828;-79
2023/05/12 02:28:32;;;;;;;6.67;4.60;;;;;;;13.55;100.00;101833.41;5032690;28;20187;-80
2023/05/12 02:30:58;;;;;;;4.87;4.47;;;;;;;13.71;100.00;101811.47;5031967;28;20701;-79
2023/05/12 02:33:23;;;;;;;5.20;4.70;;;;;;;13.73;100.00;101820.06;5029851;28;20182;-79
2023/05/12 02:35:49;;;;;;;5.20;4.50;;;;;;;13.89;100.00;101798.97;5017155;28;20755;-79
2023/05/12 02:38:15;;;;;;;5.73;4.30;;;;;;;14.00;100.00;101793.19;5029660;28;20194;-79
2023/05/12 02:40:41;;;;;;;6.43;4.20;;;;;;;14.06;100.00;101777.91;5030583;28;20761;-80
2023/05/12 02:43:06;;;;;;;5.07;4.53;;;;;;;14.14;100.00;101767.75;5030875;28;20297;-79
2023/05/12 02:45:32;;;;;;;5.73;4.50;;;;;;;14.16;100.00;101784.06;5030193;28;20245;-78
2023/05/12 02:47:58;;;;;;;5.53;4.43;;;;;;;14.15;100.00;101790.97;5027668;28;20702;-78
2023/05/12 02:50:24;;;;;;;5.37;4.30;;;;;;;14.21;100.00;101765.34;5030233;28;20186;-79
2023/05/12 02:52:50;;;;;;;6.60;4.63;;;;;;;14.23;100.00;101761.06;5032512;28;20670;-78
2023/05/12 02:55:16;;;;;;;5.40;4.90;;;;;;;14.18;100.00;101791.00;5029560;28;20214;-79
2023/05/12 02:57:42;;;;;;;5.83;4.73;;;;;;;14.18;100.00;101792.72;5024479;28;20750;-79
2023/05/12 03:00:09;;;;;;;5.70;5.00;;;;;;;14.22;100.00;101790.25;5028325;28;20365;-78
2023/05/12 03:02:38;;;;;;;5.07;4.67;;;;;;;14.19;100.00;101797.91;5030282;28;20222;-80
2023/05/12 03:05:05;;;;;;;5.37;4.83;;;;;;;14.22;100.00;101789.41;5020384;28;20253;-80
2023/05/12 03:07:31;;;;;;;5.80;4.97;;;;;;;14.24;100.00;101783.44;5031558;28;20264;-79
2023/05/12 03:09:57;;;;;;;6.63;5.00;;;;;;;14.37;100.00;101748.47;5033927;28;20655;-79
2023/05/12 03:12:22;;;;;;;6.40;5.13;;;;;;;14.35;100.00;101763.91;5030238;28;20233;-78
2023/05/12 03:14:48;;;;;;;5.43;4.80;;;;;;;14.37;100.00;101761.34;5029385;28;20190;-80
2023/05/12 03:17:13;;;;;;;5.43;4.93;;;;;;;14.40;100.00;101754.53;5030299;28;20622;-78
2023/05/12 03:19:39;;;;;;;5.10;4.60;;;;;;;14.43;100.00;101752.03;5030162;28;20678;-79
2023/05/12 03:22:08;;;;;;;5.77;4.70;;;;;;;14.43;100.00;101759.75;5030417;28;20543;-79
2023/05/12 03:24:34;;;;;;;7.33;4.83;;;;;;;14.43;100.00;101772.66;5030801;28;20565;-79
2023/05/12 03:26:59;;;;;;;5.30;4.73;;;;;;;14.48;100.00;101770.13;5030340;28;20217;-78
2023/05/12 03:29:25;;;;;;;5.13;4.60;;;;;;;14.48;100.00;101763.28;5028779;28;20194;-79
2023/05/12 03:31:51;;;;;;;5.20;4.70;;;;;;;14.51;100.00;101772.78;5030005;28;20221;-79
2023/05/12 03:34:17;;;;;;;8.13;4.50;;;;;;;14.55;100.00;101770.28;5029871;28;20240;-79
2023/05/12 03:36:44;;;;;;;5.47;4.77;;;;;;;14.56;100.00;101779.78;5030664;28;20226;-79
2023/05/12 03:39:10;;;;;;;6.20;4.90;;;;;;;14.52;100.00;101797.72;5030459;28;20186;-80
2023/05/12 03:41:35;;;;;;;5.43;4.87;;;;;;;14.58;100.00;101779.78;5029731;28;20705;-78
2023/05/12 03:44:01;;;;;;;7.07;4.80;;;;;;;14.54;100.00;101794.31;5030377;28;20198;-79
2023/05/12 03:46:27;;;;;;;6.40;4.83;;;;;;;14.48;100.00;101813.94;5020694;28;20265;-79
2023/05/12 03:48:52;;;;;;;5.40;4.90;;;;;;;14.50;100.00;101792.53;5030102;28;20194;-79
2023/05/12 03:51:18;;;;;;;6.57;4.93;;;;;;;14.50;100.00;101804.56;5022415;28;20217;-79
2023/05/12 03:53:46;;;;;;;7.97;4.93;;;;;;;14.55;100.00;101790.91;5034328;28;20599;-79
2023/05/12 03:56:12;;;;;;;7.80;4.83;;;;;;;14.61;100.00;101762.69;5032041;28;20280;-79
2023/05/12 03:58:38;;;;;;;6.20;5.20;;;;;;;14.60;100.00;101788.41;5034348;28;20194;-80
2023/05/12 04:01:04;;;;;;;4.97;4.47;;;;;;;14.57;100.00;101806.41;5029245;28;20253;-78
2023/05/12 04:03:30;;;;;;;5.87;4.80;;;;;;;14.55;100.00;101831.28;5026105;28;20219;-80
2023/05/12 04:06:02;;;;;;;7.27;5.00;;;;;;;14.58;100.00;101823.59;5034622;28;20212;-78
2023/05/12 04:08:28;;;;;;;6.23;5.17;;;;;;;14.55;100.00;101821.81;5037507;28;20267;-80
2023/05/12 04:10:57;;;;;;;7.30;5.33;;;;;;;14.62;100.00;101804.78;5036902;28;20190;-79
2023/05/12 04:13:24;;;;;;;8.00;5.00;;;;;;;14.60;100.00;101814.19;5018676;28;20235;-79
2023/05/12 04:15:50;;;;;;;6.50;4.40;;;;;;;14.65;100.00;101805.69;5031175;28;20310;-79
2023/05/12 04:18:16;;;;;;;5.77;5.03;;;;;;;14.66;100.00;101822.03;5032347;28;20194;-80
2023/05/12 04:20:43;;;;;;;5.50;4.97;;;;;;;14.69;100.00;101807.47;5050323;28;20218;-79
2023/05/12 04:23:08;;;;;;;5.83;5.00;;;;;;;14.72;100.00;101798.94;5019210;28;20281;-79
2023/05/12 04:25:38;;;;;;;7.27;5.37;;;;;;;14.72;100.00;101809.25;5034136;28;20218;-78
2023/05/12 04:28:05;;;;;;;7.37;5.43;;;;;;;14.71;100.00;101844.50;5024531;28;20221;-79
2023/05/12 04:30:31;;;;;;;6.83;5.00;;;;;;;14.69;100.00;101850.47;5034713;28;20179;-79
2023/05/12 04:32:56;;;;;;;6.00;4.70;;;;;;;14.73;100.00;101836.78;5032743;28;20827;-79
2023/05/12 04:35:22;;;;;;;5.57;4.50;;;;;;;14.69;100.00;101877.09;5016197;28;20620;-79
2023/05/12 04:37:48;;;;;;;5.73;4.50;;;;;;;14.71;100.00;101884.88;5017477;28;20217;-79
2023/05/12 04:40:14;;;;;;;5.70;4.97;;;;;;;14.71;100.00;101910.66;5034108;28;20197;-79
2023/05/12 04:42:39;;;;;;;5.60;4.63;;;;;;;14.73;100.00;101870.31;5033997;28;20549;-79
2023/05/12 04:45:08;;;;;;;6.93;5.03;;;;;;;14.73;100.00;101902.09;5034626;28;20256;-79
2023/05/12 04:47:34;;;;;;;5.40;4.90;;;;;;;14.72;100.00;101921.00;5029822;28;20256;-79
2023/05/12 04:50:00;;;;;;;6.40;5.20;;;;;;;14.72;100.00;101904.66;5035457;28;20198;-79
2023/05/12 04:52:25;;;;;;;7.83;5.30;;;;;;;14.74;100.00;101890.09;5034140;28;20273;-79
2023/05/12 04:54:51;;;;;;;7.80;5.40;;;;;;;14.75;100.00;101896.97;5034279;28;20198;-78
2023/05/12 04:57:16;;;;;;;7.60;5.30;;;;;;;14.75;100.00;101915.03;5037238;28;20282;-78
2023/05/12 04:59:42;;;;;;;6.00;5.33;;;;;;;14.78;100.00;101918.53;5026444;28;20189;-78
2023/05/12 05:02:08;;;;;;;8.80;5.03;;;;;;;14.81;100.00;101925.47;5038022;28;20187;-80
2023/05/12 05:04:34;;;;;;;6.13;4.57;;;;;;;14.85;100.00;101855.03;5018020;28;20190;-76
2023/05/12 05:07:00;;;;;;;7.07;5.23;;;;;;;14.88;100.00;101817.28;5032898;28;20288;-80
2023/05/12 05:09:26;;;;;;;6.37;5.43;;;;;;;14.94;100.00;101830.31;5019953;28;20705;-77
2023/05/12 05:11:51;;;;;;;5.43;4.93;;;;;;;14.96;100.00;101871.59;5024381;28;20190;-78
2023/05/12 05:14:17;;;;;;;6.40;4.73;;;;;;;14.98;100.00;101869.91;5033897;28;20250;-78
2023/05/12 05:16:44;;;;;;;7.57;5.33;;;;;;;15.00;100.00;101891.44;5037716;28;20211;-79
2023/05/12 05:19:12;;;;;;;5.37;4.77;;;;;;;15.02;100.00;101864.84;5034772;28;20202;-81
2023/05/12 05:21:37;;;;;;;6.80;4.97;;;;;;;15.07;100.00;101849.44;5036808;28;20221;-79
2023/05/12 05:24:04;;;;;;;7.60;5.10;;;;;;;15.09;100.00;101858.94;5031461;28;20666;-77
2023/05/12 05:26:30;;;;;;;11.60;5.33;;;;;;;15.13;100.00;101845.25;5013511;28;20231;-78
2023/05/12 05:28:56;;;;;;;5.80;4.87;;;;;;;15.16;100.00;101858.22;5023064;28;20187;-79
2023/05/12 05:31:23;;;;;;;6.40;4.77;;;;;;;15.24;100.00;101820.47;5031809;28;20193;-80
2023/05/12 05:33:48;;;;;;;5.47;4.90;;;;;;;15.28;100.00;101793.88;5014633;28;20187;-78
2023/05/12 05:36:15;;;;;;;6.63;5.30;;;;;;;15.32;100.00;101818.03;5032001;28;20226;-77
2023/05/12 05:38:41;;;;;;;6.23;5.10;;;;;;;15.40;100.00;101775.16;5033015;28;20186;-78
2023/05/12 05:41:07;;;;;;;5.57;4.37;;;;;;;15.46;100.00;101764.91;5036379;28;20210;-79
2023/05/12 05:43:33;;;;;;;5.70;5.10;;;;;;;15.52;100.00;101785.69;5034821;28;20194;-78
2023/05/12 05:45:59;;;;;;;5.43;4.87;;;;;;;15.59;100.00;101845.19;5036523;28;20187;-78
2023/05/12 05:48:25;;;;;;;10.67;5.30;;;;;;;15.63;100.00;101880.53;5025486;28;20193;-78
2023/05/12 05:50:52;;;;;;;5.37;4.83;;;;;;;15.66;100.00;101821.16;5037151;28;20192;-79
2023/05/12 05:53:20;;;;;;;7.20;4.93;;;;;;;15.75;100.00;101797.22;5035133;28;20261;-78
2023/05/12 05:55:47;;;;;;;7.63;4.83;;;;;;;15.79;100.00;101799.00;5038364;28;20214;-78
2023/05/12 05:58:14;;;;;;;6.10;4.50;;;;;;;15.83;100.00;101772.31;5036782;28;20190;-78
2023/05/12 06:00:41;;;;;;;7.47;5.00;;;;;;;15.90;100.00;101790.53;5035156;28;20186;-79
2023/05/12 06:03:07;;;;;;;5.20;4.70;;;;;;;15.93;100.00;101769.88;5035515;28;20202;-79
2023/05/12 06:05:32;;;;;;;5.27;4.83;;;;;;;15.97;100.00;101752.72;5036390;28;20657;-79
2023/05/12 06:07:58;;;;;;;5.77;5.00;;;;;;;16.01;100.00;101745.00;5025851;28;20222;-78
2023/05/12 06:10:24;;;;;;;7.13;5.03;;;;;;;16.07;100.00;101729.56;5047429;28;20267;-78
2023/05/12 06:12:50;;;;;;;6.00;4.73;;;;;;;16.16;100.00;101798.63;5035715;28;20222;-79
2023/05/12 06:15:16;;;;;;;5.53;4.93;;;;;;;16.26;100.00;101792.69;5035052;28;20638;-78
2023/05/12 06:17:42;;;;;;;7.20;5.13;;;;;;;16.32;100.00;101826.34;5035608;28;20587;-78
2023/05/12 06:20:08;;;;;;;6.23;4.97;;;;;;;16.36;100.00;101817.78;5026231;28;20195;-79
2023/05/12 06:22:33;;;;;;;6.87;4.90;;;;;;;16.40;100.00;101742.88;5037722;28;20190;-79
2023/05/12 06:24:59;;;;;;;7.17;5.33;;;;;;;16.48;100.00;101772.28;5039337;28;20240;-79
2023/05/12 06:27:25;;;;;;;5.30;4.80;;;;;;;16.57;100.00;101750.84;5037669;28;20297;-79
2023/05/12 06:29:51;;;;;;;9.73;4.70;;;;;;;16.60;100.00;101723.28;5021604;28;20288;-79
2023/05/12 06:32:16;;;;;;;6.33;4.90;;;;;;;16.68;100.00;101689.72;5039383;28;20190;-79
2023/05/12 06:34:42;;;;;;;7.33;4.67;;;;;;;16.80;100.00;101705.34;5037539;28;20554;-78
2023/05/12 06:37:08;;;;;;;5.83;4.87;;;;;;;16.91;100.00;101665.72;5031389;28;20231;-80
2023/05/12 06:39:33;;;;;;;7.50;5.03;;;;;;;17.14;100.00;101690.03;5033348;28;20228;-79
2023/05/12 06:41:59;;;;;;;6.40;4.23;;;;;;;17.30;100.00;101678.06;5038847;28;20270;-79
2023/05/12 06:44:25;;;;;;;8.10;4.70;;;;;;;17.40;100.00;101602.22;5039002;28;20265;-80
2023/05/12 06:46:51;;;;;;;5.17;4.67;;;;;;;17.54;100.00;101557.34;5035902;28;20698;-80
2023/05/12 06:49:16;;;;;;;6.20;4.93;;;;;;;17.73;100.00;101540.13;5038442;28;20686;-79
2023/05/12 06:51:42;;;;;;;7.57;4.63;;;;;;;17.98;100.00;101560.88;5037237;28;20248;-79
2023/05/12 06:54:10;;;;;;;7.10;4.77;;;;;;;18.27;99.93;101525.44;5038778;28;20201;-79
2023/05/12 06:56:35;;;;;;;7.07;4.83;;;;;;;18.67;100.00;101529.75;5038325;28;20221;-79
2023/05/12 06:59:02;;;;;;;5.50;4.40;;;;;;;18.69;94.03;101493.38;5038341;28;20216;-79
2023/05/12 07:01:28;;;;;;;5.60;4.60;;;;;;;18.71;89.11;101447.53;5036027;28;20253;-79
2023/05/12 07:03:54;;;;;;;5.83;4.10;;;;;;;18.43;88.44;101446.75;5036603;28;20206;-78
2023/05/12 07:06:20;;;;;;;6.67;4.77;;;;;;;18.30;91.86;101465.81;5035236;28;20900;-79
2023/05/12 07:08:46;;;;;;;8.73;4.30;;;;;;;18.35;87.69;101451.13;5034393;28;20187;-78
2023/05/12 07:11:12;;;;;;;7.03;4.30;;;;;;;18.32;86.73;101448.50;5049823;28;20233;-79
2023/05/12 07:13:37;;;;;;;4.93;4.40;;;;;;;18.26;87.25;101461.50;5038419;28;20227;-79
2023/05/12 07:16:04;;;;;;;4.50;4.10;;;;;;;18.25;81.45;101435.56;5037845;28;20597;-79
2023/05/12 07:18:29;;;;;;;5.93;4.27;;;;;;;18.29;81.74;101432.09;5032491;28;20186;-80
2023/05/12 07:20:55;;;;;;;5.83;4.90;;;;;;;18.51;85.08;101457.16;5034860;28;20340;-79
2023/05/12 07:23:20;;;;;;;6.87;4.53;;;;;;;18.76;95.08;101524.53;5035691;28;20742;-79
2023/05/12 07:25:46;;;;;;;5.63;4.43;;;;;;;18.93;90.33;101507.13;5036771;28;20186;-79
2023/05/12 07:28:12;;;;;;;5.77;4.10;;;;;;;19.17;87.98;101473.25;5022006;28;20195;-80
2023/05/12 07:30:38;;;;;;;4.63;4.03;;;;;;;19.43;90.41;101492.22;5036483;28;20630;-77
2023/05/12 07:33:03;;;;;;;6.07;4.50;;;;;;;19.58;87.60;101476.50;5033536;28;20190;-79
2023/05/12 07:35:29;;;;;;;6.67;4.87;;;;;;;19.85;82.02;101436.47;5013932;28;20236;-78
2023/05/12 07:37:55;;;;;;;5.80;4.30;;;;;;;19.84;75.86;101396.59;5027319;28;20213;-79
2023/05/12 07:40:20;;;;;;;7.07;4.80;;;;;;;19.69;73.15;101349.06;5021522;28;20201;-79
2023/05/12 07:42:46;;;;;;;7.60;4.33;;;;;;;20.06;73.09;101366.91;5036130;28;20187;-79
2023/05/12 07:45:11;;;;;;;5.60;4.70;;;;;;;20.01;71.68;101354.81;5034174;28;20194;-79
2023/05/12 07:47:37;;;;;;;9.00;5.07;;;;;;;20.04;69.96;101344.38;5033026;28;20237;-79
2023/05/12 07:50:03;;;;;;;5.87;4.30;;;;;;;20.19;71.66;101375.44;5029735;28;20194;-79
2023/05/12 07:52:28;;;;;;;6.10;4.33;;;;;;;20.27;69.76;101342.41;5032329;28;20217;-78
2023/05/12 07:54:56;;;;;;;6.43;4.37;;;;;;;20.46;74.42;101386.38;5034450;28;20244;-79
2023/05/12 07:57:22;;;;;;;7.70;4.90;;;;;;;20.62;71.75;101384.47;5036130;28;20230;-79
2023/05/12 07:59:48;;;;;;;7.53;4.43;;;;;;;21.01;68.39;101350.94;5035232;28;20190;-79
2023/05/12 08:02:13;;;;;;;5.90;4.57;;;;;;;20.96;68.17;101336.28;5034191;28;20555;-79
2023/05/12 08:04:39;;;;;;;8.63;5.10;;;;;;;21.25;70.05;101370.56;5020787;28;20191;-80
2023/05/12 08:07:04;;;;;;;5.53;4.33;;;;;;;21.31;75.06;101391.31;5030846;28;20207;-72
2023/05/12 08:09:30;;;;;;;9.10;4.83;;;;;;;21.51;69.40;101360.59;5025406;28;20197;-78
2023/05/12 08:11:55;;;;;;;5.70;4.10;;;;;;;21.63;72.31;101382.09;5028066;28;20198;-78
2023/05/12 08:14:21;;;;;;;5.03;4.10;;;;;;;21.77;74.16;101401.00;5028568;28;20201;-79
2023/05/12 08:16:47;;;;;;;9.67;4.80;;;;;;;21.84;62.68;101302.66;5028164;28;20221;-80
2023/05/12 08:19:12;;;;;;;9.17;4.07;;;;;;;21.67;61.41;101287.28;5030497;28;20271;-79
2023/05/12 08:21:39;;;;;;;5.87;4.23;;;;;;;21.98;60.98;101295.41;5030206;28;20202;-79
2023/05/12 08:24:04;;;;;;;5.70;3.83;;;;;;;22.03;61.33;101311.81;5030392;28;20205;-81
2023/05/12 08:26:30;;;;;;;5.20;4.00;;;;;;;22.23;63.04;101308.81;5031055;28;20207;-78
2023/05/12 08:28:55;;;;;;;7.03;4.13;;;;;;;22.49;58.34;101286.53;5031117;28;20191;-81
2023/05/12 08:31:21;;;;;;;4.32;3.85;;;;;;;22.63;58.59;101299.25;5031857;28;20661;-78
2023/05/12 08:33:46;;;;;;;4.28;3.88;;;;;;;22.78;54.99;101281.47;5029372;28;20191;-83
2023/05/12 08:36:12;;;;;;;4.32;3.80;;;;;;;22.79;54.87;101400.75;5024982;28;20387;-80
2023/05/12 08:38:37;;;;;;;6.70;3.92;;;;;;;23.07;56.95;101445.44;5030676;28;20195;-79
2023/05/12 08:41:18;;;;;;;5.80;3.75;;;;;;;23.34;51.33;101424.78;5030543;28;20569;-77
2023/05/12 08:43:49;;;;;;;4.15;3.75;;;;;;;23.38;51.25;101444.72;5010049;28;20682;-77
2023/05/12 08:46:15;;;;;;;4.88;3.75;;;;;;;23.75;52.57;101492.66;5028131;28;20569;-78
2023/05/12 08:48:43;;;;;;;4.32;3.92;;;;;;;24.11;55.25;101520.59;5032242;28;20182;-79
2023/05/12 08:51:10;;;;;;;4.70;4.18;;;;;;;24.24;53.70;101497.56;5013874;28;20186;-78
2023/05/12 08:53:40;;;;;;;4.88;3.97;;;;;;;24.45;51.74;101499.63;5032477;28;20703;-79
2023/05/12 08:56:08;;;;;;;4.55;3.85;;;;;;;24.43;47.25;101460.38;5031478;28;20357;-81
2023/05/12 08:58:35;;;;;;;5.47;3.78;;;;;;;24.36;46.28;101481.53;5014428;28;20639;-78
2023/05/12 09:01:06;;;;;;;5.50;3.60;;;;;;;24.40;44.53;101485.78;5011389;28;20276;-80
2023/05/12 09:03:34;;;;;;;4.32;3.45;;;;;;;24.47;44.59;101503.91;5028144;28;20983;-82
2023/05/12 09:06:00;;;;;;;5.82;3.70;;;;;;;24.57;43.69;101509.75;5032136;28;20282;-79
2023/05/12 09:08:29;;;;;;;5.03;3.50;;;;;;;24.68;42.01;101689.41;5030926;28;20240;-79
2023/05/12 09:10:56;;;;;;;4.07;3.20;;;;;;;24.78;42.31;101724.13;5032480;28;20194;-78
2023/05/12 09:13:49;;;;;;;4.13;3.50;;;;;;;24.58;41.32;101710.63;5030292;28;20658;-78
2023/05/12 09:16:20;;;;;;;6.10;3.60;;;;;;;24.62;41.51;101714.88;5030071;28;20734;-79
2023/05/12 09:18:50;;;;;;;5.53;3.33;;;;;;;24.82;40.96;101731.00;5024265;28;20190;-78
2023/05/12 09:21:16;;;;;;;4.55;3.13;;;;;;;24.90;40.34;101719.41;5029757;28;20198;-79
2023/05/12 09:24:04;;;;;;;6.35;3.78;;;;;;;25.31;43.25;101773.44;5033182;28;20206;-79
2023/05/12 09:26:31;;;;;;;3.60;3.30;;;;;;;25.27;41.03;101722.00;5032827;28;20210;-79
2023/05/12 09:29:05;;;;;;;4.32;3.33;;;;;;;25.26;39.63;101717.59;5032159;28;20198;-79
2023/05/12 09:31:31;;;;;;;5.30;3.35;;;;;;;25.16;38.88;101727.47;5031258;28;20715;-78
2023/05/12 09:33:57;;;;;;;4.50;3.08;;;;;;;25.26;39.82;101746.44;5030751;28;20183;-77
2023/05/12 09:36:24;;;;;;;4.22;3.28;;;;;;;25.41;39.28;101751.34;5029932;28;20694;-79
2023/05/12 09:39:08;;;;;;;6.97;3.63;;;;;;;25.59;38.90;101735.06;5025423;28;20189;-79
2023/05/12 09:41:38;;;;;;;4.95;3.30;;;;;;;25.57;39.93;101753.50;5029951;28;20202;-78
2023/05/12 09:44:05;;;;;;;5.50;3.13;;;;;;;25.55;38.45;101742.16;5029972;28;20197;-78
2023/05/12 09:46:31;;;;;;;3.47;3.17;;;;;;;25.79;38.26;101741.47;5029353;28;20214;-79
2023/05/12 09:48:57;;;;;;;7.07;3.65;;;;;;;25.83;37.71;101729.97;5029395;28;20561;-78
2023/05/12 09:51:24;;;;;;;4.18;3.50;;;;;;;25.95;38.77;101749.81;5027649;28;20232;-78
2023/05/12 09:53:50;;;;;;;7.03;3.35;;;;;;;25.72;36.40;101726.81;5030367;28;20195;-78
2023/05/12 09:56:17;;;;;;;3.42;3.13;;;;;;;26.04;37.16;101746.91;5029180;28;20226;-77
2023/05/12 09:58:47;;;;;;;6.10;5.50;;;;;;;26.52;39.22;101806.72;5025076;28;20205;-78
2023/05/12 10:01:17;;;;;;;4.50;3.30;;;;;;;26.32;37.59;101764.44;5029589;28;20195;-78
2023/05/12 10:03:48;;;;;;;4.85;3.40;;;;;;;26.55;37.22;101734.78;5024864;28;20637;-78
2023/05/12 10:06:18;;;;;;;6.53;3.47;;;;;;;26.94;37.30;101762.47;5028731;28;20304;-78
2023/05/12 10:09:15;;;;;;;6.68;3.33;;;;;;;26.25;34.44;101739.25;5020848;28;20262;-76
2023/05/12 10:11:41;;;;;;;3.95;2.97;;;;;;;26.50;33.76;101734.09;5028663;28;20198;-78
2023/05/12 10:14:08;;;;;;;6.13;3.53;;;;;;;26.70;33.85;101737.84;5029956;28;20633;-78
2023/05/12 10:16:34;;;;;;;7.47;3.40;;;;;;;26.95;34.48;101756.28;5030219;28;20225;-79
2023/05/12 10:19:02;;;;;;;6.55;3.17;;;;;;;26.98;34.07;101751.78;5030679;28;20717;-79
2023/05/12 10:21:27;;;;;;;5.40;3.22;;;;;;;26.51;34.76;101768.22;5029987;28;20200;-78
2023/05/12 10:23:53;;;;;;;4.18;3.30;;;;;;;27.12;34.03;101743.44;5030533;28;20641;-77
2023/05/12 10:26:20;;;;;;;3.42;3.00;;;;;;;26.61;34.65;101761.78;5030109;28;20237;-79
2023/05/12 10:28:46;;;;;;;3.67;3.00;;;;;;;27.32;34.13;101751.53;5029003;28;20194;-78
2023/05/12 10:31:13;;;;;;;4.60;3.10;;;;;;;27.49;33.92;101757.91;5030075;28;20186;-79
2023/05/12 10:33:38;;;;;;;4.55;2.88;;;;;;;27.50;34.78;101753.53;5027956;28;20337;-77
2023/05/12 10:36:04;;;;;;;3.50;3.00;;;;;;;26.85;35.11;101774.13;5028201;28;20218;-78
2023/05/12 10:38:36;;;;;;;4.22;3.15;;;;;;;27.07;36.05;101785.69;5030040;28;20198;-78
2023/05/12 10:41:04;;;;;;;5.75;3.20;;;;;;;26.71;35.49;101767.63;5030093;28;20194;-78
2023/05/12 10:43:41;;;;;;;4.75;3.40;;;;;;;27.14;33.90;101752.13;5027853;28;20187;-77
2023/05/12 10:46:17;;;;;;;4.18;3.42;;;;;;;26.58;35.16;101774.16;5028081;28;21027;-77
2023/05/12 10:48:49;;;;;;;7.05;3.45;;;;;;;26.27;34.70;101773.34;5022838;28;20198;-77
2023/05/12 10:51:21;;;;;;;4.53;3.05;;;;;;;26.00;34.90;101779.41;5028589;28;20655;-78
2023/05/12 10:53:50;;;;;;;3.55;3.13;;;;;;;25.72;33.57;101760.06;5027906;28;20201;-77
2023/05/12 10:56:24;;;;;;;5.28;3.30;;;;;;;25.34;33.58;101760.25;5026789;28;20317;-77
2023/05/12 10:59:18;;;;;;;3.22;2.92;;;;;;;26.09;33.83;101773.91;5022999;28;20252;-78
2023/05/12 11:02:04;;;;;;;7.60;3.22;;;;;;;25.96;33.54;101747.13;5022295;28;20224;-77
2023/05/12 11:04:41;;;;;;;4.38;3.25;;;;;;;26.76;35.27;101792.84;5028298;28;20221;-76
2023/05/12 11:07:08;;;;;;;6.70;3.15;;;;;;;26.75;33.22;101750.84;5030191;28;20293;-77
2023/05/12 11:09:36;;;;;;;4.30;3.00;;;;;;;27.33;36.20;101819.03;5028177;28;20205;-76
2023/05/12 11:12:01;;;;;;;4.32;2.90;;;;;;;27.05;33.76;101758.56;5023981;28;20196;-77
2023/05/12 11:14:27;;;;;;;3.70;3.20;;;;;;;26.13;34.70;101759.78;5028151;28;20194;-77
2023/05/12 11:16:53;;;;;;;4.28;2.72;;;;;;;25.83;34.45;101768.53;5029153;28;20292;-77
2023/05/12 11:19:19;;;;;;;3.45;2.90;;;;;;;25.63;34.30;101776.94;5026314;28;20188;-77